createdAt,value
2023-02-06T00:12:44.855Z,3.56
2023-02-06T00:32:44.881Z,3.68
2023-02-06T00:52:44.888Z,3.81
2023-02-06T01:12:44.920Z,3.81
2023-02-06T01:32:44.890Z,3.68
2023-02-06T01:52:44.907Z,3.81
2023-02-06T02:12:44.918Z,3.62
2023-02-06T02:32:44.931Z,3.75
2023-02-06T02:52:44.941Z,3.62
2023-02-06T03:12:44.949Z,3.62
2023-02-06T03:32:44.961Z,3.75
2023-02-06T03:52:44.967Z,3.62
2023-02-06T04:12:44.995Z,3.43
2023-02-06T04:32:44.995Z,3.50
2023-02-06T04:52:44.997Z,3.50
2023-02-06T05:12:45.003Z,3.37
2023-02-06T05:32:45.008Z,3.43
2023-02-06T05:52:45.044Z,3.37
2023-02-06T06:12:45.120Z,3.37
2023-02-06T06:32:45.186Z,3.43
2023-02-06T06:52:45.194Z,3.50
2023-02-06T07:12:45.174Z,3.50
2023-02-06T07:32:45.185Z,3.50
2023-02-06T07:52:45.177Z,3.31
2023-02-06T08:12:45.187Z,3.43
2023-02-06T08:32:45.222Z,3.25
2023-02-06T08:52:45.201Z,3.37
2023-02-06T09:12:45.215Z,3.43
2023-02-06T09:32:45.353Z,3.43
2023-02-06T09:53:49.608Z,3.50
2023-02-06T10:12:45.202Z,3.50
2023-02-06T10:32:45.233Z,3.43
2023-02-06T10:52:45.351Z,3.50
2023-02-06T11:12:45.234Z,3.43
2023-02-06T11:32:45.251Z,3.43
2023-02-06T11:52:45.253Z,3.43
2023-02-06T12:12:45.272Z,3.56
2023-02-06T12:32:45.275Z,3.43
2023-02-06T12:52:45.281Z,3.43
2023-02-06T13:12:45.294Z,3.43
2023-02-06T13:32:45.328Z,3.37
2023-02-06T13:52:45.250Z,3.43
2023-02-06T14:12:45.233Z,3.43
2023-02-06T14:32:45.341Z,3.62
2023-02-06T14:52:45.340Z,3.50
2023-02-06T15:12:45.347Z,3.50
2023-02-06T15:32:45.317Z,3.56
2023-02-06T15:52:45.415Z,3.43
2023-02-06T16:12:45.313Z,3.43
2023-02-06T16:32:45.348Z,3.43
2023-02-06T16:52:45.333Z,3.31
2023-02-06T17:12:45.338Z,3.37
2023-02-06T17:32:45.345Z,3.43
2023-02-06T17:52:45.357Z,3.43
2023-02-06T18:12:45.425Z,3.37
2023-02-06T18:32:45.297Z,3.43
2023-02-06T18:52:45.291Z,3.50
2023-02-06T19:12:45.371Z,3.56
2023-02-06T19:32:45.314Z,3.62
2023-02-06T19:52:45.388Z,3.43
2023-02-06T20:12:45.335Z,3.37
2023-02-06T20:32:45.345Z,3.37
2023-02-06T20:52:45.353Z,3.50
2023-02-06T21:12:45.355Z,3.37
2023-02-06T21:32:45.378Z,3.56
2023-02-06T21:52:45.384Z,3.62
2023-02-06T22:12:45.403Z,3.50
2023-02-06T22:32:45.459Z,3.50
2023-02-06T22:52:45.502Z,3.31
2023-02-06T23:12:45.508Z,3.37
2023-02-06T23:32:45.560Z,3.43
2023-02-06T23:52:45.555Z,3.62
